Domov               UVHVVR             MKGP            O straneh              
ZDRAVSTVENO VARSTVO RASTLIN
  MREŽA AGROMET. POSTAJ
 ► PROGNOSTIČNA OBVESTILA
AGROMETEOROLOŠKI PODATKI -
ARSO
OBVLADOVANJE TVEGANJ ZARADI
NEUGODNIH VREMENSKIH RAZMER
  ► NARAVNE NESREČE
  ► SUŠA/MOČA
  ► NAMAKANJE
  ► ŽLED (gozdarstvo)
KARTOGRAFSKI PRIKAZI
SPLETNE POVEZAVE
PROJEKTI IN PUBLIKACIJE

AGROMETEOROLOŠKA MREŽA: VREMENSKE POSTAJE IN FENOLOŠKA OPAZOVANJA

Pregled podatkov za lokacijo Šentjernej APS, meteorološka postaja 49205

Pregled senzorjev na lokaciji

ID Ime Zadnja
vrednost
Datum
zadnje
spremembe
Tip
senzorja
3728 Temperatura 2 m ( °C) 19,71 °C 19.8.2017 20:00 50YA
3729 Relativna vlaga 2 m (% RH) 74,37 % RH 19.8.2017 20:00 50YA
3730 Omočenost lista (U) 1 U 19.8.2017 20:00 A730WET
3731 Sončno sevanje (W/m2) 6,1 W/m2 19.8.2017 20:00 Pyranometer SP-Lite
3733 Hitrost vetra (km/h) 9,92 km/h 19.8.2017 20:00 566.2S-176 (200km/h)
3734 Smer vetra (°) 130,93 ° 19.8.2017 20:00 566.2S-130
3735 Padavine 0.2 mm (mm) 0 mm 19.8.2017 20:00 Rain-O-Matic

Pregled podatkov zadnjih 24 ur

Zap.
št.
Datum in čas Šentjernej APS
Hitrost
vetra
Omočenost
lista
Padavine
0.2
mm
Relativna
vlaga
2
m
Smer
vetra
Sončno
sevanje
Temperatura
2
m
0 19.8.2017 19:00 9,92 1 0 74,37 130,93 6,1 19,71
1 19.8.2017 18:30 9,32 2 0 75,31 113,49 12,94 20,12
2 19.8.2017 18:00 9,36 1 0 71,23 126,2 14,31 20,98
3 19.8.2017 17:30 10,41 4 0 72,96 125,17 28,56 21,35
4 19.8.2017 17:00 11,36 2 0 69,72 142,63 35,37 21,95
5 19.8.2017 16:30 10,33 0 0 65,86 126,54 47 22,58
6 19.8.2017 16:00 15,55 0 0 62,5 165,36 82,8 23,14
7 19.8.2017 15:30 16,9 0 0 59,23 131,97 230,5 24,16
8 19.8.2017 15:00 14,78 0 0 60,72 142,9 142,37 24,21
9 19.8.2017 14:30 15,66 0 0 60,68 122,57 158,97 24,53
10 19.8.2017 14:00 15,91 0 0 60,09 137,82 217,99 25,28
11 19.8.2017 13:30 13,66 0 0 60,13 134,68 283,27 25,76
12 19.8.2017 13:00 14 0 0 59,81 142,93 150,85 25,67
13 19.8.2017 12:30 14,41 0 0 56,53 132,02 359,99 27,07
14 19.8.2017 12:00 12,86 0 0 54,57 156,12 351,23 27,56
15 19.8.2017 11:30 10,72 0 0 55,38 130,62 356,91 26,99
16 19.8.2017 11:00 12,45 0 0 55,07 133,91 330,69 26,91
17 19.8.2017 10:30 10,28 0 0 56,2 106,38 456,31 26,65
18 19.8.2017 10:00 11,9 0 0 56,8 118,71 537,64 26,25
19 19.8.2017 09:30 8,97 0 0 59,33 136,39 257,36 25,33
20 19.8.2017 09:00 5,26 0 0 61,43 89,78 590,52 24,79
21 19.8.2017 08:30 4,73 0 0 63,18 87,27 486,95 23,87
22 19.8.2017 08:00 5,66 0 0 67,17 90,87 373,11 22,63
23 19.8.2017 07:30 4,66 0 0 72,01 124,16 292,97 21,38
24 19.8.2017 07:00 1,29 0 0 77,21 132,91 275,67 20,12
25 19.8.2017 06:30 1,24 0 0 79,92 89,25 148,81 18,72
26 19.8.2017 06:00 0,08 3 0 82,27 36,11 58,78 17,7
27 19.8.2017 05:30 2,98 7 0 84,46 318,16 15,72 17,15
28 19.8.2017 05:00 0,07 5 0 82,11 175,83 1,8 17,56
29 19.8.2017 04:30 0,07 6 0 81,44 232,3 0,4 17,79
30 19.8.2017 04:00 2,31 5 0 81,06 291,07 0,34 17,95
31 19.8.2017 03:30 2,98 4 0 81,15 47,05 0,34 18,06
32 19.8.2017 03:00 5,48 6 0 83,26 230,63 0,34 17,86
33 19.8.2017 02:30 0,08 3 0 77,45 220,19 0,31 18,99
34 19.8.2017 02:00 3,16 1 0 73,66 344,45 0,31 19,71
35 19.8.2017 01:30 2,73 1 0 74,67 190,86 0,34 19,71
36 19.8.2017 01:00 1,23 1 0 73,77 216,19 0,4 19,97
37 19.8.2017 00:30 4,58 1 0 71,64 246,7 20,54
38 19.8.2017 00:00 5,98 0 0 69,83 238,06 20,99
39 18.8.2017 23:30 5,92 0 0 67,8 240,4 21,4
40 18.8.2017 23:00 5,51 1 0 70,31 228,95 21,21
41 18.8.2017 22:30 4,49 0 0 66,5 244,07 22,1
42 18.8.2017 22:00 3,46 0 0 66,32 236,35 22,38
43 18.8.2017 21:30 3,21 0 0 63,4 134,16 23
44 18.8.2017 21:00 2,98 0 0 59,39 159,53 23,91
© 2011 Ministrstvo za kmetijstvo, gozdarstvo in prehrano. Vse pravice pridržane.